createdAt,value
2017-12-01T00:00:26.834Z,98963.77
2017-12-01T00:02:52.754Z,98960.88
2017-12-01T00:05:18.696Z,98965.35
2017-12-01T00:07:44.643Z,98968.68
2017-12-01T00:10:10.570Z,98969.61
2017-12-01T00:12:36.494Z,98967.01
2017-12-01T00:15:02.434Z,98964.53
2017-12-01T00:17:28.373Z,98963.95
2017-12-01T00:19:54.295Z,98965.09
2017-12-01T00:22:20.220Z,98963.64
2017-12-01T00:24:46.172Z,98972.94
2017-12-01T00:27:12.104Z,98977.89
2017-12-01T00:29:38.036Z,98981.47
2017-12-01T00:32:03.972Z,98980.72
2017-12-01T00:34:29.897Z,98985.88
2017-12-01T00:36:55.828Z,98988.42
2017-12-01T00:39:21.751Z,98994.73
2017-12-01T00:41:47.682Z,98992.84
2017-12-01T00:44:13.638Z,98998.05
2017-12-01T00:46:39.559Z,98992.91
2017-12-01T00:49:05.489Z,99000.77
2017-12-01T00:51:31.422Z,98998.38
2017-12-01T00:53:57.346Z,99003.80
2017-12-01T00:56:23.280Z,99011.46
2017-12-01T00:58:49.531Z,99011.59
2017-12-01T01:01:15.453Z,99009.12
2017-12-01T01:03:41.373Z,99021.52
2017-12-01T01:06:07.296Z,99017.64
2017-12-01T01:08:33.227Z,99019.89
2017-12-01T01:10:59.170Z,99022.08
2017-12-01T01:13:25.109Z,99020.22
2017-12-01T01:15:51.050Z,99028.30
2017-12-01T01:18:16.972Z,99024.08
2017-12-01T01:20:42.917Z,99030.81
2017-12-01T01:23:08.870Z,99031.16
2017-12-01T01:25:34.814Z,99034.90
2017-12-01T01:28:00.762Z,99039.72
2017-12-01T01:30:26.695Z,99043.03
2017-12-01T01:32:52.621Z,99042.50
2017-12-01T01:35:18.554Z,99045.14
2017-12-01T01:37:44.475Z,99055.87
2017-12-01T01:40:10.388Z,99050.58
2017-12-01T01:42:36.326Z,99045.75
2017-12-01T01:45:02.258Z,99052.30
2017-12-01T01:47:28.210Z,99049.97
2017-12-01T01:49:54.144Z,99053.58
2017-12-01T01:52:20.060Z,99047.17
2017-12-01T01:54:45.983Z,99045.55
2017-12-01T01:57:11.907Z,99044.51
2017-12-01T01:59:37.827Z,99050.27
2017-12-01T02:02:03.804Z,99045.98
2017-12-01T02:04:29.741Z,99053.17
2017-12-01T02:06:55.661Z,99051.65
2017-12-01T02:09:21.583Z,99058.06
2017-12-01T02:11:47.503Z,99063.59
2017-12-01T02:14:13.425Z,99054.38
2017-12-01T02:16:39.358Z,99061.57
2017-12-01T02:19:05.297Z,99055.89
2017-12-01T02:21:31.232Z,99057.77
2017-12-01T02:23:57.169Z,99062.71
2017-12-01T02:26:23.106Z,99061.06
2017-12-01T02:28:49.021Z,99064.93
2017-12-01T02:31:14.948Z,99061.40
2017-12-01T02:33:40.911Z,99064.05
2017-12-01T02:36:06.879Z,99068.58
2017-12-01T02:38:32.812Z,99066.00
2017-12-01T02:40:58.738Z,99068.66
2017-12-01T02:43:24.701Z,99079.50
2017-12-01T02:45:50.621Z,99073.17
2017-12-01T02:48:16.559Z,99075.52
2017-12-01T02:50:42.482Z,99080.34
2017-12-01T02:53:08.416Z,99082.38
2017-12-01T02:55:34.351Z,99086.03
2017-12-01T02:58:00.269Z,99082.84
2017-12-01T03:00:26.215Z,99085.93
2017-12-01T03:02:52.137Z,99087.18
2017-12-01T03:05:18.068Z,99091.18
2017-12-01T03:07:44.009Z,99086.05
2017-12-01T03:10:09.939Z,99088.64
2017-12-01T03:12:35.903Z,99088.83
2017-12-01T03:15:01.830Z,99085.33
2017-12-01T03:17:27.753Z,99091.66
2017-12-01T03:19:53.677Z,99094.61
2017-12-01T03:22:19.635Z,99101.73
2017-12-01T03:24:45.557Z,99110.67
2017-12-01T03:27:11.475Z,99104.92
2017-12-01T03:29:37.401Z,99109.27
2017-12-01T03:32:03.333Z,99112.14
2017-12-01T03:34:29.289Z,99118.98
2017-12-01T03:36:55.211Z,99120.42
2017-12-01T03:39:21.139Z,99124.15
2017-12-01T03:41:47.067Z,99124.27
2017-12-01T03:44:13.002Z,99128.61
2017-12-01T03:46:38.927Z,99122.46
2017-12-01T03:49:04.851Z,99132.09
2017-12-01T03:51:30.773Z,99133.03
2017-12-01T03:53:56.711Z,99130.23
2017-12-01T03:56:22.797Z,99129.44
2017-12-01T03:58:48.737Z,99132.75
2017-12-01T04:01:14.676Z,99135.09
2017-12-01T04:03:40.615Z,99140.37
2017-12-01T04:06:06.541Z,99135.84
2017-12-01T04:08:32.495Z,99134.95
2017-12-01T04:10:58.411Z,99142.05
2017-12-01T04:13:24.468Z,99149.00
2017-12-01T04:15:50.399Z,99151.45
2017-12-01T04:18:16.319Z,99155.16
2017-12-01T04:20:42.331Z,99157.43
2017-12-01T04:23:08.267Z,99157.95
2017-12-01T04:25:34.275Z,99162.87
2017-12-01T04:28:00.379Z,99168.71
2017-12-01T04:30:26.421Z,99162.77
2017-12-01T04:32:52.447Z,99168.03
2017-12-01T04:35:18.413Z,99168.59
2017-12-01T04:37:44.339Z,99174.24
2017-12-01T04:40:10.267Z,99179.34
2017-12-01T04:42:36.215Z,99177.73
2017-12-01T04:45:02.155Z,99180.59
2017-12-01T04:47:28.109Z,99187.20
2017-12-01T04:49:54.031Z,99189.97
2017-12-01T04:52:19.980Z,99199.23
2017-12-01T04:54:45.907Z,99197.84
2017-12-01T04:57:11.857Z,99204.77
2017-12-01T04:59:37.803Z,99205.08
2017-12-01T05:02:03.737Z,99214.92
2017-12-01T05:04:29.661Z,99219.98
2017-12-01T05:06:55.583Z,99216.98
2017-12-01T05:09:21.522Z,99216.73
2017-12-01T05:11:47.461Z,99221.91
2017-12-01T05:14:13.388Z,99227.78
2017-12-01T05:16:39.327Z,99226.96
2017-12-01T05:19:05.271Z,99220.84
2017-12-01T05:21:31.303Z,99222.13
2017-12-01T05:23:57.302Z,99225.55
2017-12-01T05:26:23.224Z,99236.62
2017-12-01T05:28:49.169Z,99239.18
2017-12-01T05:31:15.103Z,99244.69
2017-12-01T05:33:41.031Z,99255.33
2017-12-01T05:36:07.013Z,99254.44
2017-12-01T05:38:32.935Z,99256.78
2017-12-01T05:40:58.875Z,99260.47
2017-12-01T05:43:24.810Z,99263.11
2017-12-01T05:45:50.741Z,99262.84
2017-12-01T05:48:16.699Z,99266.98
2017-12-01T05:50:42.793Z,99272.27
2017-12-01T05:53:08.761Z,99272.20
2017-12-01T05:55:34.689Z,99271.84
2017-12-01T05:58:00.631Z,99273.42
2017-12-01T06:00:26.573Z,99279.86
2017-12-01T06:02:52.508Z,99280.44
2017-12-01T06:05:18.437Z,99278.11
2017-12-01T06:07:44.367Z,99290.95
2017-12-01T06:10:10.389Z,99293.09
2017-12-01T06:12:36.324Z,99290.44
2017-12-01T06:15:02.283Z,99297.34
2017-12-01T06:17:28.211Z,99306.06
2017-12-01T06:19:54.127Z,99303.11
2017-12-01T06:22:20.075Z,99307.14
2017-12-01T06:24:46.027Z,99309.42
2017-12-01T06:27:11.970Z,99314.84
2017-12-01T06:29:37.903Z,99318.44
2017-12-01T06:32:03.831Z,99325.27
2017-12-01T06:34:29.777Z,99327.77
2017-12-01T06:36:55.724Z,99329.28
2017-12-01T06:39:21.651Z,99333.19
2017-12-01T06:41:47.599Z,99335.89
2017-12-01T06:44:13.533Z,99336.05
2017-12-01T06:46:39.479Z,99337.79
2017-12-01T06:49:05.465Z,99348.98
2017-12-01T06:51:31.391Z,99348.27
2017-12-01T06:53:57.351Z,99355.11
2017-12-01T06:56:23.275Z,99361.18
2017-12-01T06:58:49.205Z,99355.07
2017-12-01T07:01:15.151Z,99366.00
2017-12-01T07:03:41.075Z,99368.37
2017-12-01T07:06:07.034Z,99375.53
2017-12-01T07:08:32.960Z,99382.14
2017-12-01T07:10:58.896Z,99383.20
2017-12-01T07:13:24.819Z,99376.28
2017-12-01T07:15:50.743Z,99381.55
2017-12-01T07:18:16.675Z,99382.84
2017-12-01T07:20:42.630Z,99383.52
2017-12-01T07:23:08.584Z,99391.58
2017-12-01T07:25:34.528Z,99390.59
2017-12-01T07:28:00.498Z,99390.91
2017-12-01T07:30:26.441Z,99393.27
2017-12-01T07:32:52.423Z,99393.45
2017-12-01T07:35:18.401Z,99381.91
2017-12-01T07:37:44.347Z,99391.73
2017-12-01T07:40:10.307Z,99395.38
2017-12-01T07:42:36.236Z,99395.98
2017-12-01T07:45:02.167Z,99398.95
2017-12-01T07:47:28.097Z,99402.31
2017-12-01T07:49:54.031Z,99404.09
2017-12-01T07:52:19.975Z,99410.70
2017-12-01T07:54:45.911Z,99414.47
2017-12-01T07:57:11.834Z,99421.98
2017-12-01T07:59:37.767Z,99421.70
2017-12-01T08:02:03.693Z,99431.30
2017-12-01T08:04:29.627Z,99438.36
2017-12-01T08:06:55.557Z,99437.04
2017-12-01T08:09:21.496Z,99439.81
2017-12-01T08:11:47.450Z,99448.26
2017-12-01T08:14:13.371Z,99460.66
2017-12-01T08:16:39.313Z,99454.26
2017-12-01T08:19:05.237Z,99455.13
2017-12-01T08:21:31.181Z,99460.73
2017-12-01T08:23:57.112Z,99457.00
2017-12-01T08:26:23.061Z,99455.98
2017-12-01T08:28:49.001Z,99459.65
2017-12-01T08:31:14.928Z,99467.00
2017-12-01T08:33:40.863Z,99466.56
2017-12-01T08:36:06.809Z,99481.23
2017-12-01T08:38:32.741Z,99486.86
2017-12-01T08:40:58.663Z,99485.30
2017-12-01T08:43:24.579Z,99486.95
2017-12-01T08:45:50.506Z,99488.15
2017-12-01T08:48:16.454Z,99492.33
2017-12-01T08:50:42.446Z,99498.96
2017-12-01T08:53:08.351Z,99493.74
2017-12-01T08:55:34.275Z,99497.52
2017-12-01T08:58:00.207Z,99501.14
2017-12-01T09:00:26.138Z,99496.20
2017-12-01T09:02:52.063Z,99512.45
2017-12-01T09:05:17.993Z,99514.20
2017-12-01T09:07:43.915Z,99522.19
2017-12-01T09:10:09.834Z,99524.72
2017-12-01T09:12:35.767Z,99526.60
2017-12-01T09:15:01.895Z,99534.78
2017-12-01T09:17:27.858Z,99532.38
2017-12-01T09:19:53.794Z,99533.05
2017-12-01T09:22:19.731Z,99534.55
2017-12-01T09:24:45.658Z,99536.36
2017-12-01T09:27:11.591Z,99536.84
2017-12-01T09:29:37.511Z,99535.53
2017-12-01T09:32:03.467Z,99541.13
2017-12-01T09:34:29.391Z,99546.89
2017-12-01T09:36:55.312Z,99548.91
2017-12-01T09:39:21.249Z,99553.17
2017-12-01T09:41:47.175Z,99550.11
2017-12-01T09:44:13.091Z,99553.47
2017-12-01T09:46:39.006Z,99551.31
2017-12-01T09:49:04.943Z,99557.23
2017-12-01T09:51:30.937Z,99553.69
2017-12-01T09:53:56.887Z,99554.38
2017-12-01T09:56:22.806Z,99562.56
2017-12-01T09:58:48.727Z,99566.31
2017-12-01T10:01:14.658Z,99561.07
2017-12-01T10:03:40.599Z,99563.30
2017-12-01T10:06:06.529Z,99572.36
2017-12-01T10:08:32.438Z,99570.64
2017-12-01T10:10:58.377Z,99574.22
2017-12-01T10:13:24.304Z,99571.82
2017-12-01T10:15:50.222Z,99579.75
2017-12-01T10:18:16.167Z,99574.16
2017-12-01T10:20:42.107Z,99569.36
2017-12-01T10:23:08.045Z,99572.16
2017-12-01T10:25:33.971Z,99576.79
2017-12-01T10:27:59.907Z,99572.41
2017-12-01T10:30:25.846Z,99573.28
2017-12-01T10:32:51.795Z,99579.69
2017-12-01T10:35:17.723Z,99581.23
2017-12-01T10:37:43.659Z,99585.34
2017-12-01T10:40:09.591Z,99578.73
2017-12-01T10:42:35.515Z,99576.05
2017-12-01T10:45:01.443Z,99578.16
2017-12-01T10:47:27.380Z,99581.48
2017-12-01T10:49:53.322Z,99580.48
2017-12-01T10:52:19.290Z,99582.13
2017-12-01T10:54:45.269Z,99580.42
2017-12-01T10:57:11.207Z,99576.29
2017-12-01T10:59:37.147Z,99575.08
2017-12-01T11:02:03.156Z,99585.69
2017-12-01T11:04:29.087Z,99581.68
2017-12-01T11:06:55.022Z,99585.61
2017-12-01T11:09:20.951Z,99591.81
2017-12-01T11:11:46.883Z,99590.36
2017-12-01T11:14:12.831Z,99586.89
2017-12-01T11:16:38.751Z,99594.91
2017-12-01T11:19:04.683Z,99596.87
2017-12-01T11:21:30.626Z,99601.66
2017-12-01T11:23:56.559Z,99602.52
2017-12-01T11:26:22.514Z,99603.34
2017-12-01T11:28:48.500Z,99602.56
2017-12-01T11:31:14.398Z,99605.13
2017-12-01T11:33:40.340Z,99601.48
2017-12-01T11:36:06.295Z,99609.23
2017-12-01T11:38:32.236Z,99615.91
2017-12-01T11:40:58.219Z,99604.50
2017-12-01T11:43:24.153Z,99608.94
2017-12-01T11:45:50.101Z,99616.34
2017-12-01T11:48:16.051Z,99620.33
2017-12-01T11:50:41.991Z,99611.56
2017-12-01T11:53:07.919Z,99621.28
2017-12-01T11:55:33.844Z,99614.55
2017-12-01T11:57:59.771Z,99620.92
2017-12-01T12:00:25.731Z,99626.08
2017-12-01T12:02:51.655Z,99626.62
2017-12-01T12:05:17.627Z,99627.84
2017-12-01T12:07:43.551Z,99624.42
2017-12-01T12:10:09.471Z,99631.54
2017-12-01T12:12:35.450Z,99633.01
2017-12-01T12:15:01.375Z,99635.69
2017-12-01T12:17:27.296Z,99644.69
2017-12-01T12:19:53.215Z,99644.06
2017-12-01T12:22:19.159Z,99647.25
2017-12-01T12:24:45.106Z,99655.81
2017-12-01T12:27:11.093Z,99655.50
2017-12-01T12:29:37.038Z,99662.34
2017-12-01T12:32:02.967Z,99654.78
2017-12-01T12:34:28.882Z,99658.02
2017-12-01T12:36:54.850Z,99663.36
2017-12-01T12:39:20.784Z,99662.75
2017-12-01T12:41:46.763Z,99661.74
2017-12-01T12:44:12.689Z,99669.25
2017-12-01T12:46:38.623Z,99673.19
2017-12-01T12:49:04.561Z,99676.06
2017-12-01T12:51:30.475Z,99674.30
2017-12-01T12:53:56.447Z,99683.94
2017-12-01T12:56:22.374Z,99687.42
2017-12-01T12:58:48.312Z,99695.16
2017-12-01T13:01:14.280Z,99698.94
2017-12-01T13:03:40.205Z,99697.19
2017-12-01T13:06:06.157Z,99700.06
2017-12-01T13:08:32.087Z,99701.28
2017-12-01T13:10:58.067Z,99704.37
2017-12-01T13:13:24.014Z,99705.44
2017-12-01T13:15:49.932Z,99712.62
2017-12-01T13:18:15.852Z,99714.13
2017-12-01T13:20:41.830Z,99717.13
2017-12-01T13:23:07.765Z,99712.73
2017-12-01T13:25:33.695Z,99719.16
2017-12-01T13:27:59.619Z,99711.36
2017-12-01T13:30:25.538Z,99713.50
2017-12-01T13:32:51.483Z,99720.84
2017-12-01T13:35:17.422Z,99718.15
2017-12-01T13:37:43.349Z,99723.75
2017-12-01T13:40:09.290Z,99725.16
2017-12-01T13:42:35.223Z,99732.02
2017-12-01T13:45:01.158Z,99735.38
2017-12-01T13:47:27.082Z,99739.98
2017-12-01T13:49:53.018Z,99735.05
2017-12-01T13:52:18.977Z,99742.55
2017-12-01T13:54:44.935Z,99751.25
2017-12-01T13:57:10.876Z,99750.55
2017-12-01T13:59:36.817Z,99750.83
2017-12-01T14:02:02.756Z,99757.58
2017-12-01T14:04:28.687Z,99759.11
2017-12-01T14:06:54.624Z,99759.98
2017-12-01T14:09:20.570Z,99764.59
2017-12-01T14:11:46.494Z,99766.84
2017-12-01T14:14:12.639Z,99774.84
2017-12-01T14:16:38.599Z,99786.21
2017-12-01T14:19:04.524Z,99783.61
2017-12-01T14:21:30.454Z,99782.75
2017-12-01T14:23:56.405Z,99779.22
2017-12-01T14:26:22.405Z,99781.77
2017-12-01T14:28:48.334Z,99787.67
2017-12-01T14:31:14.270Z,99788.21
2017-12-01T14:33:40.215Z,99788.89
2017-12-01T14:36:06.178Z,99798.08
2017-12-01T14:38:32.114Z,99792.64
2017-12-01T14:40:58.038Z,99801.77
2017-12-01T14:43:23.987Z,99800.98
2017-12-01T14:45:50.039Z,99803.16
2017-12-01T14:48:15.970Z,99805.44
2017-12-01T14:50:41.908Z,99814.13
2017-12-01T14:53:07.843Z,99817.06
2017-12-01T14:55:33.793Z,99827.97
2017-12-01T14:57:59.743Z,99825.83
2017-12-01T15:00:25.715Z,99821.52
2017-12-01T15:02:51.698Z,99829.25
2017-12-01T15:05:17.579Z,99845.52
2017-12-01T15:07:43.501Z,99847.94
2017-12-01T15:10:09.512Z,99853.98
2017-12-01T15:12:35.398Z,99851.30
2017-12-01T15:15:01.324Z,99854.89
2017-12-01T15:17:27.298Z,99859.32
2017-12-01T15:19:53.202Z,99858.39
2017-12-01T15:22:19.143Z,99860.20
2017-12-01T15:24:45.062Z,99860.91
2017-12-01T15:27:11.015Z,99871.28
2017-12-01T15:29:36.950Z,99862.61
2017-12-01T15:32:02.922Z,99865.38
2017-12-01T15:34:28.860Z,99872.02
2017-12-01T15:36:54.859Z,99877.50
2017-12-01T15:39:20.821Z,99875.70
2017-12-01T15:41:46.782Z,99876.02
2017-12-01T15:44:12.714Z,99882.50
2017-12-01T15:46:38.653Z,99888.52
2017-12-01T15:49:04.614Z,99890.00
2017-12-01T15:51:30.625Z,99891.17
2017-12-01T15:53:56.594Z,99883.47
2017-12-01T15:56:22.536Z,99893.60
2017-12-01T15:58:48.481Z,99895.98
2017-12-01T16:01:14.412Z,99897.70
2017-12-01T16:03:40.349Z,99902.55
2017-12-01T16:06:06.272Z,99907.48
2017-12-01T16:08:32.327Z,99916.43
2017-12-01T16:10:58.278Z,99927.22
2017-12-01T16:13:24.203Z,99929.92
2017-12-01T16:15:50.176Z,99930.38
2017-12-01T16:18:16.098Z,99939.64
2017-12-01T16:20:42.047Z,99939.48
2017-12-01T16:23:07.999Z,99940.79
2017-12-01T16:25:33.967Z,99951.54
2017-12-01T16:27:59.888Z,99944.70
2017-12-01T16:30:25.833Z,99951.16
2017-12-01T16:32:51.768Z,99947.98
2017-12-01T16:35:18.930Z,99956.23
2017-12-01T16:37:44.858Z,99958.15
2017-12-01T16:40:10.823Z,99954.39
2017-12-01T16:42:36.766Z,99954.87
2017-12-01T16:45:02.723Z,99963.23
2017-12-01T16:47:28.666Z,99964.14
2017-12-01T16:49:54.598Z,99969.78
2017-12-01T16:52:20.530Z,99975.75
2017-12-01T16:54:46.460Z,99973.62
2017-12-01T16:57:12.427Z,99971.20
2017-12-01T16:59:38.349Z,99983.91
2017-12-01T17:02:04.275Z,99981.84
2017-12-01T17:04:30.240Z,99991.73
2017-12-01T17:06:56.171Z,99994.43
2017-12-01T17:09:22.104Z,99997.36
2017-12-01T17:11:48.029Z,100002.72
2017-12-01T17:14:13.994Z,100007.87
2017-12-01T17:16:39.935Z,100012.39
2017-12-01T17:19:05.854Z,100008.46
2017-12-01T17:21:31.799Z,100019.08
2017-12-01T17:23:57.726Z,100022.41
2017-12-01T17:26:23.666Z,100022.22
2017-12-01T17:28:49.605Z,100032.23
2017-12-01T17:31:15.550Z,100044.66
2017-12-01T17:33:41.557Z,100040.47
2017-12-01T17:36:07.500Z,100040.73
2017-12-01T17:38:33.430Z,100039.61
2017-12-01T17:40:59.356Z,100040.25
2017-12-01T17:43:25.299Z,100048.53
2017-12-01T17:45:51.253Z,100051.73
2017-12-01T17:48:17.208Z,100056.47
2017-12-01T17:50:43.147Z,100060.22
2017-12-01T17:53:09.091Z,100063.38
2017-12-01T17:55:35.028Z,100070.11
2017-12-01T17:58:00.960Z,100070.41
2017-12-01T18:00:26.886Z,100074.59
2017-12-01T18:02:52.836Z,100074.50
2017-12-01T18:05:18.830Z,100082.70
2017-12-01T18:07:44.830Z,100088.22
2017-12-01T18:10:10.772Z,100090.67
2017-12-01T18:12:36.722Z,100097.55
2017-12-01T18:15:02.666Z,100100.72
2017-12-01T18:17:28.648Z,100102.06
2017-12-01T18:19:54.598Z,100102.80
2017-12-01T18:22:20.524Z,100105.34
2017-12-01T18:24:46.478Z,100112.51
2017-12-01T18:27:12.404Z,100113.58
2017-12-01T18:29:38.352Z,100109.83
2017-12-01T18:32:04.337Z,100114.78
2017-12-01T18:34:30.268Z,100115.34
2017-12-01T18:36:56.205Z,100113.83
2017-12-01T18:39:22.160Z,100124.66
2017-12-01T18:41:48.205Z,100121.09
2017-12-01T18:44:14.143Z,100124.14
2017-12-01T18:46:40.090Z,100126.31
2017-12-01T18:49:06.030Z,100136.71
2017-12-01T18:51:31.976Z,100136.59
2017-12-01T18:53:58.018Z,100127.38
2017-12-01T18:56:23.956Z,100129.28
2017-12-01T18:58:49.958Z,100131.66
2017-12-01T19:01:15.916Z,100141.60
2017-12-01T19:03:41.861Z,100141.78
2017-12-01T19:06:07.799Z,100141.16
2017-12-01T19:08:33.946Z,100142.13
2017-12-01T19:10:59.972Z,100134.11
2017-12-01T19:13:25.944Z,100142.60
2017-12-01T19:15:51.928Z,100139.73
2017-12-01T19:18:17.874Z,100142.31
2017-12-01T19:20:43.923Z,100142.77
2017-12-01T19:23:09.854Z,100145.16
2017-12-01T19:25:35.803Z,100147.05
2017-12-01T19:28:01.722Z,100155.45
2017-12-01T19:30:27.660Z,100161.97
2017-12-01T19:32:53.594Z,100162.77
2017-12-01T19:35:19.545Z,100162.54
2017-12-01T19:37:45.502Z,100169.31
2017-12-01T19:40:11.488Z,100171.05
2017-12-01T19:42:37.417Z,100173.84
2017-12-01T19:45:03.375Z,100174.64
2017-12-01T19:47:29.339Z,100187.50
2017-12-01T19:49:55.920Z,100181.72
2017-12-01T19:52:21.901Z,100179.20
2017-12-01T19:54:47.835Z,100184.13
2017-12-01T19:57:13.782Z,100188.16
2017-12-01T19:59:39.710Z,100191.62
2017-12-01T20:02:05.651Z,100200.33
2017-12-01T20:04:33.618Z,100197.63
2017-12-01T20:06:59.560Z,100202.21
2017-12-01T20:09:25.678Z,100200.62
2017-12-01T20:11:51.607Z,100195.16
2017-12-01T20:14:17.555Z,100206.78
2017-12-01T20:16:43.503Z,100208.88
2017-12-01T20:19:09.450Z,100212.50
2017-12-01T20:21:35.394Z,100209.85
2017-12-01T20:24:01.337Z,100216.48
2017-12-01T20:26:27.301Z,100218.52
2017-12-01T20:28:53.237Z,100219.38
2017-12-01T20:31:19.184Z,100216.92
2017-12-01T20:33:45.153Z,100221.98
2017-12-01T20:36:11.111Z,100217.94
2017-12-01T20:38:37.049Z,100213.70
2017-12-01T20:41:03.017Z,100214.28
2017-12-01T20:43:28.951Z,100222.12
2017-12-01T20:45:54.879Z,100219.77
2017-12-01T20:48:20.811Z,100218.55
2017-12-01T20:50:46.983Z,100215.63
2017-12-01T20:53:12.933Z,100223.46
2017-12-01T20:55:38.869Z,100222.98
2017-12-01T20:58:04.818Z,100232.80
2017-12-01T21:00:30.773Z,100233.55
2017-12-01T21:02:56.693Z,100228.41
2017-12-01T21:05:22.615Z,100224.56
2017-12-01T21:07:48.548Z,100226.11
2017-12-01T21:10:14.507Z,100225.39
2017-12-01T21:12:40.458Z,100228.41
2017-12-01T21:15:06.407Z,100237.61
2017-12-01T21:17:32.343Z,100233.70
2017-12-01T21:19:58.270Z,100237.46
2017-12-01T21:22:24.203Z,100239.20
2017-12-01T21:24:50.138Z,100232.65
2017-12-01T21:27:16.078Z,100228.61
2017-12-01T21:29:42.029Z,100235.64
2017-12-01T21:32:08.060Z,100235.06
2017-12-01T21:34:34.005Z,100234.00
2017-12-01T21:36:59.947Z,100233.08
2017-12-01T21:39:25.892Z,100235.58
2017-12-01T21:41:51.822Z,100234.09
2017-12-01T21:44:17.751Z,100234.34
2017-12-01T21:46:43.679Z,100233.23
2017-12-01T21:49:09.614Z,100235.94
2017-12-01T21:51:35.576Z,100242.97
2017-12-01T21:54:01.518Z,100236.73
2017-12-01T21:56:27.451Z,100239.63
2017-12-01T21:58:53.418Z,100237.91
2017-12-01T22:01:19.363Z,100237.61
2017-12-01T22:03:45.315Z,100243.47
2017-12-01T22:06:11.291Z,100253.19
2017-12-01T22:08:37.219Z,100247.56
2017-12-01T22:11:03.168Z,100249.82
2017-12-01T22:13:29.109Z,100253.87
2017-12-01T22:15:55.071Z,100251.06
2017-12-01T22:18:21.009Z,100258.77
2017-12-01T22:20:46.931Z,100265.73
2017-12-01T22:23:12.855Z,100259.94
2017-12-01T22:25:38.791Z,100260.22
2017-12-01T22:28:04.737Z,100268.05
2017-12-01T22:30:30.718Z,100271.05
2017-12-01T22:32:56.644Z,100271.81
2017-12-01T22:35:22.570Z,100270.30
2017-12-01T22:37:48.508Z,100278.44
2017-12-01T22:40:14.435Z,100285.42
2017-12-01T22:42:40.367Z,100283.48
2017-12-01T22:45:06.290Z,100286.09
2017-12-01T22:47:32.219Z,100285.27
2017-12-01T22:49:58.159Z,100294.23
2017-12-01T22:52:24.099Z,100294.31
2017-12-01T22:54:50.049Z,100296.23
2017-12-01T22:57:16.040Z,100294.73
2017-12-01T22:59:41.923Z,100289.84
2017-12-01T23:02:08.547Z,100286.33
2017-12-01T23:04:34.491Z,100288.75
2017-12-01T23:07:00.441Z,100299.42
2017-12-01T23:09:26.385Z,100300.70
2017-12-01T23:11:52.328Z,100301.28
2017-12-01T23:14:18.266Z,100291.94
2017-12-01T23:16:44.281Z,100299.78
2017-12-01T23:19:10.209Z,100297.41
2017-12-01T23:21:36.159Z,100305.31
2017-12-01T23:24:02.154Z,100305.77
2017-12-01T23:26:28.209Z,100305.97
2017-12-01T23:28:54.169Z,100309.24
2017-12-01T23:31:20.101Z,100308.55
2017-12-01T23:33:46.963Z,100311.09
2017-12-01T23:36:13.067Z,100309.60
2017-12-01T23:38:39.024Z,100313.41
2017-12-01T23:41:04.982Z,100312.06
2017-12-01T23:43:30.958Z,100322.92
2017-12-01T23:45:56.901Z,100315.58
2017-12-01T23:48:22.843Z,100323.17
2017-12-01T23:50:48.785Z,100320.03
2017-12-01T23:53:14.719Z,100320.59
2017-12-01T23:55:40.667Z,100320.17
2017-12-01T23:58:06.595Z,100319.13
